sensor_id;sensor_type;location;lat;lon;timestamp;P1;durP1;ratioP1;P2;durP2;ratioP2
11048;SDS011;5577;42.706;23.160;2022-08-19T00:01:44;6.30;;;5.70;;
11048;SDS011;5577;42.706;23.160;2022-08-19T00:04:30;6.70;;;6.03;;
11048;SDS011;5577;42.706;23.160;2022-08-19T00:07:16;6.57;;;5.90;;
11048;SDS011;5577;42.706;23.160;2022-08-19T00:10:00;6.97;;;6.23;;
11048;SDS011;5577;42.706;23.160;2022-08-19T00:12:44;6.50;;;5.90;;
11048;SDS011;5577;42.706;23.160;2022-08-19T00:15:28;6.50;;;5.90;;
11048;SDS011;5577;42.706;23.160;2022-08-19T00:18:12;6.23;;;5.63;;
11048;SDS011;5577;42.706;23.160;2022-08-19T00:20:56;6.40;;;5.90;;
11048;SDS011;5577;42.706;23.160;2022-08-19T00:23:41;6.60;;;6.00;;
11048;SDS011;5577;42.706;23.160;2022-08-19T00:26:27;6.70;;;5.80;;
11048;SDS011;5577;42.706;23.160;2022-08-19T00:29:13;6.17;;;5.63;;
11048;SDS011;5577;42.706;23.160;2022-08-19T00:31:58;6.43;;;5.83;;
11048;SDS011;5577;42.706;23.160;2022-08-19T00:34:43;6.30;;;5.80;;
11048;SDS011;5577;42.706;23.160;2022-08-19T00:37:27;6.03;;;5.53;;
11048;SDS011;5577;42.706;23.160;2022-08-19T00:40:12;6.60;;;6.00;;
11048;SDS011;5577;42.706;23.160;2022-08-19T00:42:56;7.43;;;6.20;;
11048;SDS011;5577;42.706;23.160;2022-08-19T00:45:40;7.03;;;6.43;;
11048;SDS011;5577;42.706;23.160;2022-08-19T00:48:27;6.70;;;6.10;;
11048;SDS011;5577;42.706;23.160;2022-08-19T00:51:11;6.63;;;5.93;;
11048;SDS011;5577;42.706;23.160;2022-08-19T00:53:55;6.57;;;5.97;;
11048;SDS011;5577;42.706;23.160;2022-08-19T00:56:42;7.33;;;6.20;;
11048;SDS011;5577;42.706;23.160;2022-08-19T00:59:27;7.13;;;6.53;;
11048;SDS011;5577;42.706;23.160;2022-08-19T01:02:12;6.70;;;6.07;;
11048;SDS011;5577;42.706;23.160;2022-08-19T01:04:56;5.83;;;5.33;;
11048;SDS011;5577;42.706;23.160;2022-08-19T01:07:40;6.33;;;5.73;;
11048;SDS011;5577;42.706;23.160;2022-08-19T01:10:26;6.50;;;5.90;;
11048;SDS011;5577;42.706;23.160;2022-08-19T01:13:14;6.40;;;5.80;;
11048;SDS011;5577;42.706;23.160;2022-08-19T01:16:08;6.50;;;5.90;;
11048;SDS011;5577;42.706;23.160;2022-08-19T01:18:55;6.53;;;5.93;;
11048;SDS011;5577;42.706;23.160;2022-08-19T01:22:17;6.63;;;5.80;;
11048;SDS011;5577;42.706;23.160;2022-08-19T01:25:08;6.20;;;5.67;;
11048;SDS011;5577;42.706;23.160;2022-08-19T01:27:52;6.07;;;5.50;;
11048;SDS011;5577;42.706;23.160;2022-08-19T01:30:37;6.30;;;5.70;;
11048;SDS011;5577;42.706;23.160;2022-08-19T01:33:21;6.37;;;5.67;;
11048;SDS011;5577;42.706;23.160;2022-08-19T01:36:07;6.23;;;5.63;;
11048;SDS011;5577;42.706;23.160;2022-08-19T01:38:54;6.50;;;6.00;;
11048;SDS011;5577;42.706;23.160;2022-08-19T01:41:38;6.23;;;5.73;;
11048;SDS011;5577;42.706;23.160;2022-08-19T01:44:23;6.93;;;5.63;;
11048;SDS011;5577;42.706;23.160;2022-08-19T01:47:07;6.37;;;5.87;;
11048;SDS011;5577;42.706;23.160;2022-08-19T01:49:53;6.23;;;5.63;;
11048;SDS011;5577;42.706;23.160;2022-08-19T01:52:38;6.03;;;5.43;;
11048;SDS011;5577;42.706;23.160;2022-08-19T01:55:23;7.00;;;6.00;;
11048;SDS011;5577;42.706;23.160;2022-08-19T01:58:08;6.63;;;6.03;;
11048;SDS011;5577;42.706;23.160;2022-08-19T02:01:00;7.10;;;5.83;;
11048;SDS011;5577;42.706;23.160;2022-08-19T02:03:44;6.17;;;5.60;;
11048;SDS011;5577;42.706;23.160;2022-08-19T02:06:28;6.53;;;6.03;;
11048;SDS011;5577;42.706;23.160;2022-08-19T02:09:13;6.40;;;5.80;;
11048;SDS011;5577;42.706;23.160;2022-08-19T02:11:57;6.57;;;5.90;;
11048;SDS011;5577;42.706;23.160;2022-08-19T02:14:42;6.07;;;5.57;;
11048;SDS011;5577;42.706;23.160;2022-08-19T02:17:26;6.57;;;5.90;;
11048;SDS011;5577;42.706;23.160;2022-08-19T02:20:12;7.00;;;6.40;;
11048;SDS011;5577;42.706;23.160;2022-08-19T02:22:56;6.77;;;6.10;;
11048;SDS011;5577;42.706;23.160;2022-08-19T02:25:41;6.10;;;5.60;;
11048;SDS011;5577;42.706;23.160;2022-08-19T02:28:25;8.90;;;6.37;;
11048;SDS011;5577;42.706;23.160;2022-08-19T02:31:14;6.50;;;5.90;;
11048;SDS011;5577;42.706;23.160;2022-08-19T02:33:59;6.67;;;5.93;;
11048;SDS011;5577;42.706;23.160;2022-08-19T02:36:44;6.73;;;6.03;;
11048;SDS011;5577;42.706;23.160;2022-08-19T02:39:28;6.90;;;6.30;;
11048;SDS011;5577;42.706;23.160;2022-08-19T02:42:12;6.70;;;6.10;;
11048;SDS011;5577;42.706;23.160;2022-08-19T02:44:56;6.70;;;6.03;;
11048;SDS011;5577;42.706;23.160;2022-08-19T02:47:40;6.93;;;6.23;;
11048;SDS011;5577;42.706;23.160;2022-08-19T02:50:25;7.53;;;6.73;;
11048;SDS011;5577;42.706;23.160;2022-08-19T02:53:09;7.07;;;6.30;;
11048;SDS011;5577;42.706;23.160;2022-08-19T02:55:54;7.03;;;6.43;;
11048;SDS011;5577;42.706;23.160;2022-08-19T02:58:38;7.20;;;6.50;;
11048;SDS011;5577;42.706;23.160;2022-08-19T03:01:32;7.70;;;6.60;;
11048;SDS011;5577;42.706;23.160;2022-08-19T03:04:16;6.97;;;6.37;;
11048;SDS011;5577;42.706;23.160;2022-08-19T03:07:00;7.67;;;6.97;;
11048;SDS011;5577;42.706;23.160;2022-08-19T03:09:44;6.77;;;6.17;;
11048;SDS011;5577;42.706;23.160;2022-08-19T03:12:28;7.63;;;6.40;;
11048;SDS011;5577;42.706;23.160;2022-08-19T03:15:12;7.63;;;6.30;;
11048;SDS011;5577;42.706;23.160;2022-08-19T03:17:57;7.23;;;6.53;;
11048;SDS011;5577;42.706;23.160;2022-08-19T03:20:42;7.20;;;6.60;;
11048;SDS011;5577;42.706;23.160;2022-08-19T03:23:26;7.00;;;6.40;;
11048;SDS011;5577;42.706;23.160;2022-08-19T03:26:10;8.43;;;6.33;;
11048;SDS011;5577;42.706;23.160;2022-08-19T03:28:55;7.47;;;6.77;;
11048;SDS011;5577;42.706;23.160;2022-08-19T03:31:40;7.77;;;6.97;;
11048;SDS011;5577;42.706;23.160;2022-08-19T03:34:27;7.03;;;6.33;;
11048;SDS011;5577;42.706;23.160;2022-08-19T03:37:13;7.57;;;6.70;;
11048;SDS011;5577;42.706;23.160;2022-08-19T03:39:57;7.37;;;6.53;;
11048;SDS011;5577;42.706;23.160;2022-08-19T03:42:41;7.60;;;6.90;;
11048;SDS011;5577;42.706;23.160;2022-08-19T03:45:26;7.17;;;6.50;;
11048;SDS011;5577;42.706;23.160;2022-08-19T03:48:10;7.30;;;6.63;;
11048;SDS011;5577;42.706;23.160;2022-08-19T03:50:54;8.37;;;7.20;;
11048;SDS011;5577;42.706;23.160;2022-08-19T03:53:38;7.73;;;6.80;;
11048;SDS011;5577;42.706;23.160;2022-08-19T03:56:23;7.57;;;6.87;;
11048;SDS011;5577;42.706;23.160;2022-08-19T03:59:12;10.73;;;7.17;;
11048;SDS011;5577;42.706;23.160;2022-08-19T04:01:59;7.93;;;7.13;;
11048;SDS011;5577;42.706;23.160;2022-08-19T04:04:44;8.67;;;7.33;;
11048;SDS011;5577;42.706;23.160;2022-08-19T04:07:28;7.73;;;6.87;;
11048;SDS011;5577;42.706;23.160;2022-08-19T04:10:13;7.97;;;7.27;;
11048;SDS011;5577;42.706;23.160;2022-08-19T04:12:57;8.53;;;7.63;;
11048;SDS011;5577;42.706;23.160;2022-08-19T04:15:41;12.03;;;7.80;;
11048;SDS011;5577;42.706;23.160;2022-08-19T04:18:26;7.77;;;6.97;;
11048;SDS011;5577;42.706;23.160;2022-08-19T04:21:18;7.80;;;7.00;;
11048;SDS011;5577;42.706;23.160;2022-08-19T04:24:05;10.17;;;7.37;;
11048;SDS011;5577;42.706;23.160;2022-08-19T04:26:50;8.13;;;7.23;;
11048;SDS011;5577;42.706;23.160;2022-08-19T04:29:34;7.23;;;6.53;;
11048;SDS011;5577;42.706;23.160;2022-08-19T04:32:18;6.90;;;6.20;;
11048;SDS011;5577;42.706;23.160;2022-08-19T04:35:02;8.03;;;7.00;;
11048;SDS011;5577;42.706;23.160;2022-08-19T04:37:46;7.90;;;7.07;;
11048;SDS011;5577;42.706;23.160;2022-08-19T04:40:30;7.47;;;6.77;;
11048;SDS011;5577;42.706;23.160;2022-08-19T04:43:34;11.63;;;6.40;;
11048;SDS011;5577;42.706;23.160;2022-08-19T04:46:19;7.10;;;6.43;;
11048;SDS011;5577;42.706;23.160;2022-08-19T04:49:04;7.37;;;6.67;;
11048;SDS011;5577;42.706;23.160;2022-08-19T04:51:50;7.27;;;6.57;;
11048;SDS011;5577;42.706;23.160;2022-08-19T04:54:40;7.17;;;6.43;;
11048;SDS011;5577;42.706;23.160;2022-08-19T04:57:24;7.53;;;6.60;;
11048;SDS011;5577;42.706;23.160;2022-08-19T05:00:12;7.77;;;6.60;;
11048;SDS011;5577;42.706;23.160;2022-08-19T05:02:57;7.23;;;6.50;;
11048;SDS011;5577;42.706;23.160;2022-08-19T05:05:41;7.37;;;6.67;;
11048;SDS011;5577;42.706;23.160;2022-08-19T05:08:25;6.70;;;6.10;;
11048;SDS011;5577;42.706;23.160;2022-08-19T05:11:11;7.17;;;5.97;;
11048;SDS011;5577;42.706;23.160;2022-08-19T05:14:01;7.80;;;6.23;;
11048;SDS011;5577;42.706;23.160;2022-08-19T05:16:45;7.70;;;6.30;;
11048;SDS011;5577;42.706;23.160;2022-08-19T05:19:29;6.90;;;6.30;;
11048;SDS011;5577;42.706;23.160;2022-08-19T05:22:32;7.83;;;7.03;;
11048;SDS011;5577;42.706;23.160;2022-08-19T05:25:20;7.30;;;6.70;;
11048;SDS011;5577;42.706;23.160;2022-08-19T05:28:05;8.40;;;7.00;;
11048;SDS011;5577;42.706;23.160;2022-08-19T05:30:49;7.53;;;6.67;;
11048;SDS011;5577;42.706;23.160;2022-08-19T05:33:34;12.97;;;7.37;;
11048;SDS011;5577;42.706;23.160;2022-08-19T05:36:19;10.87;;;6.87;;
11048;SDS011;5577;42.706;23.160;2022-08-19T05:39:03;9.27;;;6.83;;
11048;SDS011;5577;42.706;23.160;2022-08-19T05:41:48;7.67;;;6.97;;
11048;SDS011;5577;42.706;23.160;2022-08-19T05:44:35;7.80;;;7.00;;
11048;SDS011;5577;42.706;23.160;2022-08-19T05:47:21;7.37;;;5.93;;
11048;SDS011;5577;42.706;23.160;2022-08-19T05:50:06;7.47;;;6.40;;
11048;SDS011;5577;42.706;23.160;2022-08-19T05:52:50;7.00;;;6.30;;
11048;SDS011;5577;42.706;23.160;2022-08-19T05:55:34;7.03;;;6.30;;
11048;SDS011;5577;42.706;23.160;2022-08-19T05:58:21;7.73;;;6.00;;
11048;SDS011;5577;42.706;23.160;2022-08-19T06:01:09;7.90;;;6.57;;
11048;SDS011;5577;42.706;23.160;2022-08-19T06:03:59;7.70;;;6.90;;
11048;SDS011;5577;42.706;23.160;2022-08-19T06:06:44;8.40;;;7.33;;
11048;SDS011;5577;42.706;23.160;2022-08-19T06:09:29;9.50;;;8.00;;
11048;SDS011;5577;42.706;23.160;2022-08-19T06:12:13;10.07;;;7.93;;
11048;SDS011;5577;42.706;23.160;2022-08-19T06:14:57;8.63;;;7.73;;
11048;SDS011;5577;42.706;23.160;2022-08-19T06:17:42;10.93;;;7.80;;
11048;SDS011;5577;42.706;23.160;2022-08-19T06:20:27;8.87;;;7.97;;
11048;SDS011;5577;42.706;23.160;2022-08-19T06:23:11;9.83;;;8.60;;
11048;SDS011;5577;42.706;23.160;2022-08-19T06:25:56;11.70;;;8.77;;
11048;SDS011;5577;42.706;23.160;2022-08-19T06:28:40;9.47;;;8.47;;
11048;SDS011;5577;42.706;23.160;2022-08-19T06:31:28;10.37;;;8.83;;
11048;SDS011;5577;42.706;23.160;2022-08-19T06:34:15;10.10;;;9.10;;
11048;SDS011;5577;42.706;23.160;2022-08-19T06:37:00;13.80;;;9.67;;
11048;SDS011;5577;42.706;23.160;2022-08-19T06:39:45;9.80;;;8.80;;
11048;SDS011;5577;42.706;23.160;2022-08-19T06:42:29;10.20;;;9.20;;
11048;SDS011;5577;42.706;23.160;2022-08-19T06:45:14;14.17;;;8.73;;
11048;SDS011;5577;42.706;23.160;2022-08-19T06:47:58;10.27;;;8.43;;
11048;SDS011;5577;42.706;23.160;2022-08-19T06:50:42;15.67;;;9.37;;
11048;SDS011;5577;42.706;23.160;2022-08-19T06:53:26;11.40;;;8.70;;
11048;SDS011;5577;42.706;23.160;2022-08-19T06:56:12;9.90;;;8.83;;
11048;SDS011;5577;42.706;23.160;2022-08-19T06:58:58;11.73;;;8.93;;
11048;SDS011;5577;42.706;23.160;2022-08-19T07:01:43;14.20;;;9.17;;
11048;SDS011;5577;42.706;23.160;2022-08-19T07:04:34;10.50;;;8.43;;
11048;SDS011;5577;42.706;23.160;2022-08-19T07:07:20;13.30;;;9.40;;
11048;SDS011;5577;42.706;23.160;2022-08-19T07:10:05;12.93;;;8.57;;
11048;SDS011;5577;42.706;23.160;2022-08-19T07:12:50;11.60;;;8.53;;
11048;SDS011;5577;42.706;23.160;2022-08-19T07:15:36;9.47;;;8.53;;
11048;SDS011;5577;42.706;23.160;2022-08-19T07:18:21;13.20;;;8.53;;
11048;SDS011;5577;42.706;23.160;2022-08-19T07:21:07;10.00;;;8.37;;
11048;SDS011;5577;42.706;23.160;2022-08-19T07:23:54;10.87;;;8.73;;
11048;SDS011;5577;42.706;23.160;2022-08-19T07:26:40;11.10;;;8.50;;
11048;SDS011;5577;42.706;23.160;2022-08-19T07:29:26;11.90;;;8.47;;
11048;SDS011;5577;42.706;23.160;2022-08-19T07:32:11;12.53;;;8.67;;
11048;SDS011;5577;42.706;23.160;2022-08-19T07:34:55;9.70;;;8.33;;
11048;SDS011;5577;42.706;23.160;2022-08-19T07:37:39;10.43;;;9.00;;
11048;SDS011;5577;42.706;23.160;2022-08-19T07:40:27;15.10;;;8.70;;
11048;SDS011;5577;42.706;23.160;2022-08-19T07:43:12;11.13;;;8.93;;
11048;SDS011;5577;42.706;23.160;2022-08-19T07:45:56;10.63;;;8.20;;
11048;SDS011;5577;42.706;23.160;2022-08-19T07:48:41;11.03;;;7.93;;
11048;SDS011;5577;42.706;23.160;2022-08-19T07:51:29;12.20;;;8.27;;
11048;SDS011;5577;42.706;23.160;2022-08-19T07:54:14;12.93;;;7.90;;
11048;SDS011;5577;42.706;23.160;2022-08-19T07:56:59;12.87;;;8.03;;
11048;SDS011;5577;42.706;23.160;2022-08-19T07:59:43;11.30;;;7.80;;
11048;SDS011;5577;42.706;23.160;2022-08-19T08:02:27;8.70;;;7.80;;
11048;SDS011;5577;42.706;23.160;2022-08-19T08:05:11;11.23;;;8.00;;
11048;SDS011;5577;42.706;23.160;2022-08-19T08:08:14;10.07;;;7.73;;
11048;SDS011;5577;42.706;23.160;2022-08-19T08:11:27;11.67;;;7.83;;
11048;SDS011;5577;42.706;23.160;2022-08-19T08:14:11;9.50;;;7.37;;
11048;SDS011;5577;42.706;23.160;2022-08-19T08:16:56;11.13;;;7.80;;
11048;SDS011;5577;42.706;23.160;2022-08-19T08:19:41;11.60;;;7.00;;
11048;SDS011;5577;42.706;23.160;2022-08-19T08:22:26;9.93;;;7.43;;
11048;SDS011;5577;42.706;23.160;2022-08-19T08:25:29;7.50;;;6.80;;
11048;SDS011;5577;42.706;23.160;2022-08-19T08:28:15;7.37;;;6.63;;
11048;SDS011;5577;42.706;23.160;2022-08-19T08:31:00;6.90;;;6.20;;
11048;SDS011;5577;42.706;23.160;2022-08-19T08:33:45;7.17;;;6.40;;
11048;SDS011;5577;42.706;23.160;2022-08-19T08:36:29;6.53;;;5.97;;
11048;SDS011;5577;42.706;23.160;2022-08-19T08:39:17;12.47;;;6.07;;
11048;SDS011;5577;42.706;23.160;2022-08-19T08:47:47;7.70;;;4.93;;
11048;SDS011;5577;42.706;23.160;2022-08-19T08:50:34;5.43;;;4.87;;
11048;SDS011;5577;42.706;23.160;2022-08-19T08:53:23;5.33;;;4.83;;
11048;SDS011;5577;42.706;23.160;2022-08-19T08:56:09;5.37;;;4.87;;
11048;SDS011;5577;42.706;23.160;2022-08-19T09:02:00;6.57;;;4.97;;
11048;SDS011;5577;42.706;23.160;2022-08-19T09:04:44;9.73;;;5.40;;
11048;SDS011;5577;42.706;23.160;2022-08-19T09:13:49;5.40;;;5.00;;
11048;SDS011;5577;42.706;23.160;2022-08-19T09:16:52;5.20;;;4.30;;
11048;SDS011;5577;42.706;23.160;2022-08-19T09:19:36;4.90;;;4.50;;
11048;SDS011;5577;42.706;23.160;2022-08-19T09:22:52;5.40;;;4.77;;
11048;SDS011;5577;42.706;23.160;2022-08-19T09:25:36;4.80;;;4.37;;
11048;SDS011;5577;42.706;23.160;2022-08-19T09:28:20;4.30;;;4.00;;
11048;SDS011;5577;42.706;23.160;2022-08-19T09:31:04;4.73;;;4.17;;
11048;SDS011;5577;42.706;23.160;2022-08-19T09:33:48;4.50;;;4.10;;
11048;SDS011;5577;42.706;23.160;2022-08-19T09:36:33;6.47;;;4.60;;
11048;SDS011;5577;42.706;23.160;2022-08-19T09:39:19;4.90;;;4.10;;
11048;SDS011;5577;42.706;23.160;2022-08-19T09:42:03;6.30;;;4.33;;
11048;SDS011;5577;42.706;23.160;2022-08-19T09:44:48;5.27;;;4.80;;
11048;SDS011;5577;42.706;23.160;2022-08-19T09:47:32;7.13;;;4.80;;
11048;SDS011;5577;42.706;23.160;2022-08-19T09:50:17;4.90;;;4.40;;
11048;SDS011;5577;42.706;23.160;2022-08-19T09:53:02;6.00;;;4.10;;
11048;SDS011;5577;42.706;23.160;2022-08-19T09:55:46;5.03;;;4.43;;
11048;SDS011;5577;42.706;23.160;2022-08-19T09:58:30;4.50;;;4.10;;
11048;SDS011;5577;42.706;23.160;2022-08-19T10:01:20;6.53;;;4.20;;
11048;SDS011;5577;42.706;23.160;2022-08-19T10:04:08;4.33;;;3.93;;
11048;SDS011;5577;42.706;23.160;2022-08-19T10:06:55;5.27;;;3.97;;
11048;SDS011;5577;42.706;23.160;2022-08-19T10:09:39;4.07;;;3.63;;
11048;SDS011;5577;42.706;23.160;2022-08-19T10:12:24;4.50;;;3.93;;
11048;SDS011;5577;42.706;23.160;2022-08-19T10:15:09;5.55;;;4.00;;
11048;SDS011;5577;42.706;23.160;2022-08-19T10:17:53;4.40;;;3.72;;
11048;SDS011;5577;42.706;23.160;2022-08-19T10:20:37;5.07;;;4.30;;
11048;SDS011;5577;42.706;23.160;2022-08-19T10:23:21;6.35;;;4.47;;
11048;SDS011;5577;42.706;23.160;2022-08-19T10:26:06;4.53;;;4.13;;
11048;SDS011;5577;42.706;23.160;2022-08-19T10:28:50;5.25;;;4.70;;
11048;SDS011;5577;42.706;23.160;2022-08-19T10:31:34;6.18;;;5.60;;
11048;SDS011;5577;42.706;23.160;2022-08-19T10:34:18;7.25;;;5.38;;
11048;SDS011;5577;42.706;23.160;2022-08-19T10:37:03;5.32;;;4.80;;
11048;SDS011;5577;42.706;23.160;2022-08-19T10:39:49;4.90;;;4.43;;
11048;SDS011;5577;42.706;23.160;2022-08-19T10:42:34;5.22;;;4.75;;
11048;SDS011;5577;42.706;23.160;2022-08-19T10:45:19;6.57;;;4.65;;
11048;SDS011;5577;42.706;23.160;2022-08-19T10:48:06;4.97;;;4.57;;
11048;SDS011;5577;42.706;23.160;2022-08-19T10:50:49;7.35;;;4.80;;
11048;SDS011;5577;42.706;23.160;2022-08-19T10:53:52;5.55;;;5.05;;
11048;SDS011;5577;42.706;23.160;2022-08-19T10:56:37;6.60;;;5.15;;
11048;SDS011;5577;42.706;23.160;2022-08-19T10:59:37;5.68;;;4.82;;
11048;SDS011;5577;42.706;23.160;2022-08-19T11:02:21;6.10;;;4.57;;
11048;SDS011;5577;42.706;23.160;2022-08-19T11:05:06;6.25;;;5.18;;
11048;SDS011;5577;42.706;23.160;2022-08-19T11:07:50;8.15;;;5.20;;
11048;SDS011;5577;42.706;23.160;2022-08-19T11:10:35;5.35;;;4.78;;
11048;SDS011;5577;42.706;23.160;2022-08-19T11:13:20;5.40;;;4.80;;
11048;SDS011;5577;42.706;23.160;2022-08-19T11:16:07;5.13;;;4.55;;
11048;SDS011;5577;42.706;23.160;2022-08-19T11:18:54;7.60;;;4.85;;
11048;SDS011;5577;42.706;23.160;2022-08-19T11:21:43;5.22;;;4.70;;
11048;SDS011;5577;42.706;23.160;2022-08-19T11:24:28;5.13;;;4.65;;
11048;SDS011;5577;42.706;23.160;2022-08-19T11:27:14;5.07;;;4.65;;
11048;SDS011;5577;42.706;23.160;2022-08-19T11:29:58;4.82;;;4.32;;
11048;SDS011;5577;42.706;23.160;2022-08-19T11:32:42;4.78;;;4.38;;
11048;SDS011;5577;42.706;23.160;2022-08-19T11:35:26;4.80;;;4.30;;
11048;SDS011;5577;42.706;23.160;2022-08-19T11:38:10;6.35;;;4.40;;
11048;SDS011;5577;42.706;23.160;2022-08-19T11:40:58;6.43;;;4.70;;
11048;SDS011;5577;42.706;23.160;2022-08-19T11:43:45;4.97;;;4.55;;
11048;SDS011;5577;42.706;23.160;2022-08-19T11:46:29;8.82;;;5.13;;
11048;SDS011;5577;42.706;23.160;2022-08-19T11:49:15;6.05;;;4.82;;
11048;SDS011;5577;42.706;23.160;2022-08-19T11:52:02;5.28;;;4.75;;
11048;SDS011;5577;42.706;23.160;2022-08-19T11:54:46;4.50;;;4.07;;
11048;SDS011;5577;42.706;23.160;2022-08-19T11:57:31;5.82;;;4.68;;
11048;SDS011;5577;42.706;23.160;2022-08-19T12:00:15;7.78;;;4.63;;
11048;SDS011;5577;42.706;23.160;2022-08-19T12:02:59;6.28;;;4.55;;
11048;SDS011;5577;42.706;23.160;2022-08-19T12:05:43;4.95;;;4.43;;
11048;SDS011;5577;42.706;23.160;2022-08-19T12:08:27;6.10;;;4.72;;
11048;SDS011;5577;42.706;23.160;2022-08-19T12:11:14;6.28;;;4.65;;
11048;SDS011;5577;42.706;23.160;2022-08-19T12:13:59;5.07;;;4.57;;
11048;SDS011;5577;42.706;23.160;2022-08-19T12:16:43;5.28;;;4.60;;
11048;SDS011;5577;42.706;23.160;2022-08-19T12:19:29;7.13;;;4.53;;
11048;SDS011;5577;42.706;23.160;2022-08-19T12:22:14;6.20;;;4.85;;
11048;SDS011;5577;42.706;23.160;2022-08-19T12:24:58;5.22;;;4.50;;
11048;SDS011;5577;42.706;23.160;2022-08-19T12:27:42;7.10;;;4.60;;
11048;SDS011;5577;42.706;23.160;2022-08-19T12:30:26;5.00;;;4.60;;
11048;SDS011;5577;42.706;23.160;2022-08-19T12:33:11;5.05;;;4.55;;
11048;SDS011;5577;42.706;23.160;2022-08-19T12:36:01;5.68;;;4.85;;
11048;SDS011;5577;42.706;23.160;2022-08-19T12:38:51;5.57;;;4.80;;
11048;SDS011;5577;42.706;23.160;2022-08-19T12:41:35;5.75;;;4.50;;
11048;SDS011;5577;42.706;23.160;2022-08-19T12:44:21;4.75;;;4.32;;
11048;SDS011;5577;42.706;23.160;2022-08-19T12:47:06;7.55;;;4.72;;
11048;SDS011;5577;42.706;23.160;2022-08-19T12:49:55;7.05;;;4.82;;
11048;SDS011;5577;42.706;23.160;2022-08-19T12:52:40;9.40;;;7.05;;
11048;SDS011;5577;42.706;23.160;2022-08-19T12:55:26;8.05;;;5.65;;
11048;SDS011;5577;42.706;23.160;2022-08-19T12:58:14;7.68;;;5.20;;
11048;SDS011;5577;42.706;23.160;2022-08-19T13:00:58;8.43;;;5.00;;
11048;SDS011;5577;42.706;23.160;2022-08-19T13:03:42;5.18;;;4.55;;
11048;SDS011;5577;42.706;23.160;2022-08-19T13:06:28;5.88;;;4.47;;
11048;SDS011;5577;42.706;23.160;2022-08-19T13:09:12;9.68;;;4.82;;
11048;SDS011;5577;42.706;23.160;2022-08-19T13:11:56;5.85;;;4.60;;
11048;SDS011;5577;42.706;23.160;2022-08-19T13:14:40;5.57;;;4.47;;
11048;SDS011;5577;42.706;23.160;2022-08-19T13:17:25;9.23;;;4.78;;
11048;SDS011;5577;42.706;23.160;2022-08-19T13:20:10;6.72;;;5.03;;
11048;SDS011;5577;42.706;23.160;2022-08-19T13:22:54;7.88;;;4.97;;
11048;SDS011;5577;42.706;23.160;2022-08-19T13:25:40;7.13;;;4.65;;
11048;SDS011;5577;42.706;23.160;2022-08-19T13:28:24;8.60;;;5.00;;
11048;SDS011;5577;42.706;23.160;2022-08-19T13:31:08;5.88;;;4.68;;
11048;SDS011;5577;42.706;23.160;2022-08-19T13:34:11;7.20;;;4.63;;
11048;SDS011;5577;42.706;23.160;2022-08-19T13:36:57;9.50;;;5.45;;
11048;SDS011;5577;42.706;23.160;2022-08-19T13:39:41;7.93;;;5.20;;
11048;SDS011;5577;42.706;23.160;2022-08-19T13:42:25;7.60;;;5.07;;
11048;SDS011;5577;42.706;23.160;2022-08-19T13:45:09;8.82;;;5.13;;
11048;SDS011;5577;42.706;23.160;2022-08-19T13:47:55;6.93;;;4.68;;
11048;SDS011;5577;42.706;23.160;2022-08-19T13:50:42;6.63;;;4.70;;
11048;SDS011;5577;42.706;23.160;2022-08-19T13:53:27;5.72;;;4.78;;
11048;SDS011;5577;42.706;23.160;2022-08-19T13:56:13;8.27;;;4.90;;
11048;SDS011;5577;42.706;23.160;2022-08-19T13:58:59;5.55;;;4.95;;
11048;SDS011;5577;42.706;23.160;2022-08-19T14:01:45;6.85;;;5.15;;
11048;SDS011;5577;42.706;23.160;2022-08-19T14:04:29;5.60;;;5.00;;
11048;SDS011;5577;42.706;23.160;2022-08-19T14:07:13;6.90;;;5.45;;
11048;SDS011;5577;42.706;23.160;2022-08-19T14:09:57;8.20;;;5.30;;
11048;SDS011;5577;42.706;23.160;2022-08-19T14:12:41;6.25;;;4.63;;
11048;SDS011;5577;42.706;23.160;2022-08-19T14:15:26;8.00;;;5.25;;
11048;SDS011;5577;42.706;23.160;2022-08-19T14:18:11;6.47;;;4.93;;
11048;SDS011;5577;42.706;23.160;2022-08-19T14:20:55;8.95;;;5.35;;
11048;SDS011;5577;42.706;23.160;2022-08-19T14:23:40;8.80;;;5.05;;
11048;SDS011;5577;42.706;23.160;2022-08-19T14:26:24;7.68;;;4.93;;
11048;SDS011;5577;42.706;23.160;2022-08-19T14:29:08;7.00;;;5.32;;
11048;SDS011;5577;42.706;23.160;2022-08-19T14:31:52;6.70;;;5.68;;
11048;SDS011;5577;42.706;23.160;2022-08-19T14:34:35;5.88;;;5.22;;
11048;SDS011;5577;42.706;23.160;2022-08-19T14:37:20;7.45;;;5.43;;
11048;SDS011;5577;42.706;23.160;2022-08-19T14:40:06;5.60;;;5.00;;
11048;SDS011;5577;42.706;23.160;2022-08-19T14:42:51;7.43;;;4.93;;
11048;SDS011;5577;42.706;23.160;2022-08-19T14:45:39;6.03;;;5.43;;
11048;SDS011;5577;42.706;23.160;2022-08-19T14:48:23;7.28;;;5.38;;
11048;SDS011;5577;42.706;23.160;2022-08-19T14:51:07;7.20;;;5.28;;
11048;SDS011;5577;42.706;23.160;2022-08-19T14:53:51;5.95;;;5.45;;
11048;SDS011;5577;42.706;23.160;2022-08-19T14:56:36;6.18;;;5.30;;
11048;SDS011;5577;42.706;23.160;2022-08-19T14:59:20;9.57;;;5.35;;
11048;SDS011;5577;42.706;23.160;2022-08-19T15:02:03;9.20;;;5.85;;
11048;SDS011;5577;42.706;23.160;2022-08-19T15:04:47;5.18;;;4.70;;
11048;SDS011;5577;42.706;23.160;2022-08-19T15:07:31;7.90;;;5.55;;
11048;SDS011;5577;42.706;23.160;2022-08-19T15:10:16;7.15;;;5.35;;
11048;SDS011;5577;42.706;23.160;2022-08-19T15:13:00;10.45;;;5.53;;
11048;SDS011;5577;42.706;23.160;2022-08-19T15:15:44;7.53;;;5.40;;
11048;SDS011;5577;42.706;23.160;2022-08-19T15:18:29;6.65;;;5.25;;
11048;SDS011;5577;42.706;23.160;2022-08-19T15:21:13;7.82;;;5.53;;
11048;SDS011;5577;42.706;23.160;2022-08-19T15:24:01;6.38;;;5.68;;
11048;SDS011;5577;42.706;23.160;2022-08-19T15:26:46;9.68;;;5.75;;
11048;SDS011;5577;42.706;23.160;2022-08-19T15:29:30;10.07;;;5.80;;
11048;SDS011;5577;42.706;23.160;2022-08-19T15:32:15;8.30;;;6.13;;
11048;SDS011;5577;42.706;23.160;2022-08-19T15:34:59;6.90;;;5.95;;
11048;SDS011;5577;42.706;23.160;2022-08-19T15:37:48;11.00;;;5.80;;
11048;SDS011;5577;42.706;23.160;2022-08-19T15:40:33;6.80;;;5.82;;
11048;SDS011;5577;42.706;23.160;2022-08-19T15:43:18;7.55;;;5.82;;
11048;SDS011;5577;42.706;23.160;2022-08-19T15:46:06;7.40;;;5.80;;
11048;SDS011;5577;42.706;23.160;2022-08-19T15:48:51;8.10;;;5.95;;
11048;SDS011;5577;42.706;23.160;2022-08-19T15:51:37;7.57;;;5.88;;
11048;SDS011;5577;42.706;23.160;2022-08-19T15:54:22;9.30;;;6.10;;
11048;SDS011;5577;42.706;23.160;2022-08-19T15:57:06;6.50;;;5.85;;
11048;SDS011;5577;42.706;23.160;2022-08-19T16:00:06;6.28;;;5.68;;
11048;SDS011;5577;42.706;23.160;2022-08-19T16:03:10;9.35;;;6.28;;
11048;SDS011;5577;42.706;23.160;2022-08-19T16:06:16;10.18;;;6.00;;
11048;SDS011;5577;42.706;23.160;2022-08-19T16:09:09;9.07;;;6.53;;
11048;SDS011;5577;42.706;23.160;2022-08-19T16:12:01;9.45;;;6.30;;
11048;SDS011;5577;42.706;23.160;2022-08-19T16:14:48;9.60;;;6.25;;
11048;SDS011;5577;42.706;23.160;2022-08-19T16:17:32;9.27;;;7.32;;
11048;SDS011;5577;42.706;23.160;2022-08-19T16:20:18;10.70;;;8.55;;
11048;SDS011;5577;42.706;23.160;2022-08-19T16:23:04;11.40;;;9.63;;
11048;SDS011;5577;42.706;23.160;2022-08-19T16:25:48;11.55;;;8.43;;
11048;SDS011;5577;42.706;23.160;2022-08-19T16:28:32;10.23;;;9.10;;
11048;SDS011;5577;42.706;23.160;2022-08-19T16:31:16;10.65;;;7.90;;
11048;SDS011;5577;42.706;23.160;2022-08-19T16:34:00;8.02;;;7.20;;
11048;SDS011;5577;42.706;23.160;2022-08-19T16:36:44;8.00;;;7.20;;
11048;SDS011;5577;42.706;23.160;2022-08-19T16:39:28;9.88;;;7.07;;
11048;SDS011;5577;42.706;23.160;2022-08-19T16:42:13;8.60;;;7.30;;
11048;SDS011;5577;42.706;23.160;2022-08-19T16:44:57;9.97;;;6.93;;
11048;SDS011;5577;42.706;23.160;2022-08-19T16:47:41;9.27;;;6.97;;
11048;SDS011;5577;42.706;23.160;2022-08-19T16:50:25;11.87;;;6.83;;
11048;SDS011;5577;42.706;23.160;2022-08-19T16:53:09;7.32;;;6.63;;